sensor_id;sensor_type;location;lat;lon;timestamp;P1;durP1;ratioP1;P2;durP2;ratioP2
67556;SDS011;54387;53.526;49.300;2023-07-30T00:00:04;4.97;;;3.08;;
67556;SDS011;54387;53.526;49.300;2023-07-30T00:02:31;3.75;;;2.95;;
67556;SDS011;54387;53.526;49.300;2023-07-30T00:04:58;5.25;;;3.20;;
67556;SDS011;54387;53.526;49.300;2023-07-30T00:07:24;5.22;;;3.00;;
67556;SDS011;54387;53.526;49.300;2023-07-30T00:09:51;4.82;;;3.05;;
67556;SDS011;54387;53.526;49.300;2023-07-30T00:12:17;7.25;;;2.90;;
67556;SDS011;54387;53.526;49.300;2023-07-30T00:14:44;5.10;;;2.95;;
67556;SDS011;54387;53.526;49.300;2023-07-30T00:17:10;6.18;;;3.00;;
67556;SDS011;54387;53.526;49.300;2023-07-30T00:19:36;5.93;;;2.63;;
67556;SDS011;54387;53.526;49.300;2023-07-30T00:22:03;8.95;;;3.35;;
67556;SDS011;54387;53.526;49.300;2023-07-30T00:24:29;7.13;;;2.90;;
67556;SDS011;54387;53.526;49.300;2023-07-30T00:26:56;3.40;;;2.65;;
67556;SDS011;54387;53.526;49.300;2023-07-30T00:29:22;4.35;;;3.00;;
67556;SDS011;54387;53.526;49.300;2023-07-30T00:31:49;8.80;;;3.53;;
67556;SDS011;54387;53.526;49.300;2023-07-30T00:34:15;4.65;;;2.72;;
67556;SDS011;54387;53.526;49.300;2023-07-30T00:36:42;9.35;;;3.25;;
67556;SDS011;54387;53.526;49.300;2023-07-30T00:39:08;5.70;;;2.63;;
67556;SDS011;54387;53.526;49.300;2023-07-30T00:41:36;5.88;;;3.45;;
67556;SDS011;54387;53.526;49.300;2023-07-30T00:44:03;5.93;;;3.42;;
67556;SDS011;54387;53.526;49.300;2023-07-30T00:46:30;5.78;;;3.42;;
67556;SDS011;54387;53.526;49.300;2023-07-30T00:48:56;12.07;;;3.50;;
67556;SDS011;54387;53.526;49.300;2023-07-30T00:51:23;5.10;;;3.30;;
67556;SDS011;54387;53.526;49.300;2023-07-30T00:53:51;6.22;;;3.70;;
67556;SDS011;54387;53.526;49.300;2023-07-30T00:56:18;8.25;;;3.40;;
67556;SDS011;54387;53.526;49.300;2023-07-30T00:58:44;7.13;;;3.78;;
67556;SDS011;54387;53.526;49.300;2023-07-30T01:01:14;4.93;;;3.20;;
67556;SDS011;54387;53.526;49.300;2023-07-30T01:03:41;4.78;;;3.15;;
67556;SDS011;54387;53.526;49.300;2023-07-30T01:06:08;7.85;;;3.38;;
67556;SDS011;54387;53.526;49.300;2023-07-30T01:08:34;5.82;;;3.30;;
67556;SDS011;54387;53.526;49.300;2023-07-30T01:11:02;5.95;;;3.50;;
67556;SDS011;54387;53.526;49.300;2023-07-30T01:13:29;4.70;;;3.03;;
67556;SDS011;54387;53.526;49.300;2023-07-30T01:15:57;6.47;;;3.33;;
67556;SDS011;54387;53.526;49.300;2023-07-30T01:18:24;4.38;;;3.20;;
67556;SDS011;54387;53.526;49.300;2023-07-30T01:20:53;5.90;;;3.35;;
67556;SDS011;54387;53.526;49.300;2023-07-30T01:23:23;5.28;;;3.30;;
67556;SDS011;54387;53.526;49.300;2023-07-30T01:25:50;7.30;;;3.20;;
67556;SDS011;54387;53.526;49.300;2023-07-30T01:28:25;6.15;;;3.50;;
67556;SDS011;54387;53.526;49.300;2023-07-30T01:30:53;4.07;;;3.00;;
67556;SDS011;54387;53.526;49.300;2023-07-30T01:33:22;4.57;;;2.78;;
67556;SDS011;54387;53.526;49.300;2023-07-30T01:35:48;7.15;;;3.58;;
67556;SDS011;54387;53.526;49.300;2023-07-30T01:38:16;5.25;;;3.28;;
67556;SDS011;54387;53.526;49.300;2023-07-30T01:40:42;4.40;;;3.45;;
67556;SDS011;54387;53.526;49.300;2023-07-30T01:43:09;7.65;;;3.72;;
67556;SDS011;54387;53.526;49.300;2023-07-30T01:45:36;8.73;;;3.72;;
67556;SDS011;54387;53.526;49.300;2023-07-30T01:48:02;5.32;;;3.28;;
67556;SDS011;54387;53.526;49.300;2023-07-30T01:50:29;6.95;;;3.30;;
67556;SDS011;54387;53.526;49.300;2023-07-30T01:52:55;9.82;;;3.75;;
67556;SDS011;54387;53.526;49.300;2023-07-30T01:55:22;5.60;;;3.35;;
67556;SDS011;54387;53.526;49.300;2023-07-30T01:57:48;5.82;;;3.40;;
67556;SDS011;54387;53.526;49.300;2023-07-30T02:00:15;6.07;;;3.20;;
67556;SDS011;54387;53.526;49.300;2023-07-30T02:02:41;6.90;;;3.30;;
67556;SDS011;54387;53.526;49.300;2023-07-30T02:05:08;5.65;;;3.28;;
67556;SDS011;54387;53.526;49.300;2023-07-30T02:07:35;4.47;;;2.90;;
67556;SDS011;54387;53.526;49.300;2023-07-30T02:10:01;5.85;;;3.30;;
67556;SDS011;54387;53.526;49.300;2023-07-30T02:12:28;6.72;;;3.58;;
67556;SDS011;54387;53.526;49.300;2023-07-30T02:14:55;8.10;;;3.60;;
67556;SDS011;54387;53.526;49.300;2023-07-30T02:17:21;7.63;;;3.00;;
67556;SDS011;54387;53.526;49.300;2023-07-30T02:19:48;6.00;;;3.30;;
67556;SDS011;54387;53.526;49.300;2023-07-30T02:22:14;4.32;;;3.00;;
67556;SDS011;54387;53.526;49.300;2023-07-30T02:24:41;8.68;;;3.53;;
67556;SDS011;54387;53.526;49.300;2023-07-30T02:27:07;6.45;;;3.03;;
67556;SDS011;54387;53.526;49.300;2023-07-30T02:29:34;4.60;;;2.90;;
67556;SDS011;54387;53.526;49.300;2023-07-30T02:32:00;6.10;;;2.83;;
67556;SDS011;54387;53.526;49.300;2023-07-30T02:34:27;6.90;;;3.20;;
67556;SDS011;54387;53.526;49.300;2023-07-30T02:36:53;7.13;;;3.00;;
67556;SDS011;54387;53.526;49.300;2023-07-30T02:39:20;9.43;;;3.20;;
67556;SDS011;54387;53.526;49.300;2023-07-30T02:41:46;7.55;;;2.70;;
67556;SDS011;54387;53.526;49.300;2023-07-30T02:44:13;6.22;;;2.80;;
67556;SDS011;54387;53.526;49.300;2023-07-30T02:46:40;5.05;;;3.08;;
67556;SDS011;54387;53.526;49.300;2023-07-30T02:49:06;5.60;;;2.58;;
67556;SDS011;54387;53.526;49.300;2023-07-30T02:51:34;4.10;;;3.13;;
67556;SDS011;54387;53.526;49.300;2023-07-30T02:54:03;7.43;;;2.83;;
67556;SDS011;54387;53.526;49.300;2023-07-30T02:56:31;3.97;;;2.45;;
67556;SDS011;54387;53.526;49.300;2023-07-30T02:58:58;4.10;;;2.58;;
67556;SDS011;54387;53.526;49.300;2023-07-30T03:01:25;3.10;;;2.40;;
67556;SDS011;54387;53.526;49.300;2023-07-30T03:03:52;3.78;;;2.88;;
67556;SDS011;54387;53.526;49.300;2023-07-30T03:06:18;4.50;;;2.50;;
67556;SDS011;54387;53.526;49.300;2023-07-30T03:08:45;6.68;;;2.67;;
67556;SDS011;54387;53.526;49.300;2023-07-30T03:11:11;7.05;;;2.97;;
67556;SDS011;54387;53.526;49.300;2023-07-30T03:13:39;5.38;;;2.80;;
67556;SDS011;54387;53.526;49.300;2023-07-30T03:16:05;3.45;;;2.60;;
67556;SDS011;54387;53.526;49.300;2023-07-30T03:18:32;3.03;;;2.72;;
67556;SDS011;54387;53.526;49.300;2023-07-30T03:20:59;4.68;;;2.90;;
67556;SDS011;54387;53.526;49.300;2023-07-30T03:23:26;3.17;;;2.72;;
67556;SDS011;54387;53.526;49.300;2023-07-30T03:25:53;3.78;;;3.05;;
67556;SDS011;54387;53.526;49.300;2023-07-30T03:28:20;5.70;;;2.75;;
67556;SDS011;54387;53.526;49.300;2023-07-30T03:30:46;3.75;;;2.70;;
67556;SDS011;54387;53.526;49.300;2023-07-30T03:33:13;4.40;;;2.63;;
67556;SDS011;54387;53.526;49.300;2023-07-30T03:35:39;7.70;;;2.92;;
67556;SDS011;54387;53.526;49.300;2023-07-30T03:38:05;3.95;;;2.47;;
67556;SDS011;54387;53.526;49.300;2023-07-30T03:40:32;3.97;;;2.47;;
67556;SDS011;54387;53.526;49.300;2023-07-30T03:42:58;4.00;;;2.33;;
67556;SDS011;54387;53.526;49.300;2023-07-30T03:45:25;4.03;;;2.63;;
67556;SDS011;54387;53.526;49.300;2023-07-30T03:47:51;5.05;;;2.65;;
67556;SDS011;54387;53.526;49.300;2023-07-30T03:50:17;4.28;;;2.60;;
67556;SDS011;54387;53.526;49.300;2023-07-30T03:52:44;6.75;;;2.47;;
67556;SDS011;54387;53.526;49.300;2023-07-30T03:55:10;3.88;;;2.42;;
67556;SDS011;54387;53.526;49.300;2023-07-30T03:57:37;5.00;;;2.50;;
67556;SDS011;54387;53.526;49.300;2023-07-30T04:00:03;5.97;;;2.42;;
67556;SDS011;54387;53.526;49.300;2023-07-30T04:02:31;3.03;;;2.40;;
67556;SDS011;54387;53.526;49.300;2023-07-30T04:04:57;4.68;;;2.60;;
67556;SDS011;54387;53.526;49.300;2023-07-30T04:07:24;3.80;;;2.40;;
67556;SDS011;54387;53.526;49.300;2023-07-30T04:09:50;4.55;;;2.33;;
67556;SDS011;54387;53.526;49.300;2023-07-30T04:12:17;3.28;;;2.60;;
67556;SDS011;54387;53.526;49.300;2023-07-30T04:14:44;4.47;;;2.58;;
67556;SDS011;54387;53.526;49.300;2023-07-30T04:17:11;2.92;;;2.28;;
67556;SDS011;54387;53.526;49.300;2023-07-30T04:19:38;3.40;;;2.67;;
67556;SDS011;54387;53.526;49.300;2023-07-30T04:22:04;5.75;;;3.10;;
67556;SDS011;54387;53.526;49.300;2023-07-30T04:24:31;4.05;;;2.33;;
67556;SDS011;54387;53.526;49.300;2023-07-30T04:26:57;5.82;;;2.60;;
67556;SDS011;54387;53.526;49.300;2023-07-30T04:29:23;4.03;;;2.70;;
67556;SDS011;54387;53.526;49.300;2023-07-30T04:31:50;3.33;;;2.35;;
67556;SDS011;54387;53.526;49.300;2023-07-30T04:34:16;4.18;;;2.85;;
67556;SDS011;54387;53.526;49.300;2023-07-30T04:36:43;5.95;;;3.08;;
67556;SDS011;54387;53.526;49.300;2023-07-30T04:39:09;3.75;;;2.58;;
67556;SDS011;54387;53.526;49.300;2023-07-30T04:41:38;3.78;;;2.50;;
67556;SDS011;54387;53.526;49.300;2023-07-30T04:44:05;7.35;;;2.97;;
67556;SDS011;54387;53.526;49.300;2023-07-30T04:46:31;4.28;;;2.20;;
67556;SDS011;54387;53.526;49.300;2023-07-30T04:49:01;5.38;;;2.55;;
67556;SDS011;54387;53.526;49.300;2023-07-30T04:51:29;2.85;;;2.50;;
67556;SDS011;54387;53.526;49.300;2023-07-30T04:53:55;4.80;;;2.47;;
67556;SDS011;54387;53.526;49.300;2023-07-30T04:56:22;4.45;;;2.58;;
67556;SDS011;54387;53.526;49.300;2023-07-30T04:58:48;4.85;;;2.85;;
67556;SDS011;54387;53.526;49.300;2023-07-30T05:01:15;3.58;;;2.75;;
67556;SDS011;54387;53.526;49.300;2023-07-30T05:03:41;5.68;;;2.97;;
67556;SDS011;54387;53.526;49.300;2023-07-30T05:06:07;6.53;;;2.85;;
67556;SDS011;54387;53.526;49.300;2023-07-30T05:08:34;5.03;;;3.15;;
67556;SDS011;54387;53.526;49.300;2023-07-30T05:11:00;3.45;;;2.55;;
67556;SDS011;54387;53.526;49.300;2023-07-30T05:13:27;4.60;;;2.97;;
67556;SDS011;54387;53.526;49.300;2023-07-30T05:15:53;4.97;;;2.60;;
67556;SDS011;54387;53.526;49.300;2023-07-30T05:18:20;5.05;;;2.63;;
67556;SDS011;54387;53.526;49.300;2023-07-30T05:20:46;3.40;;;2.72;;
67556;SDS011;54387;53.526;49.300;2023-07-30T05:23:13;3.65;;;2.78;;
67556;SDS011;54387;53.526;49.300;2023-07-30T05:25:39;4.90;;;2.90;;
67556;SDS011;54387;53.526;49.300;2023-07-30T05:28:06;3.97;;;2.80;;
67556;SDS011;54387;53.526;49.300;2023-07-30T05:30:32;4.15;;;2.90;;
67556;SDS011;54387;53.526;49.300;2023-07-30T05:32:59;5.53;;;2.90;;
67556;SDS011;54387;53.526;49.300;2023-07-30T05:35:25;4.65;;;2.80;;
67556;SDS011;54387;53.526;49.300;2023-07-30T05:37:52;4.95;;;2.90;;
67556;SDS011;54387;53.526;49.300;2023-07-30T05:40:18;5.80;;;3.60;;
67556;SDS011;54387;53.526;49.300;2023-07-30T05:42:44;4.47;;;3.00;;
67556;SDS011;54387;53.526;49.300;2023-07-30T05:45:11;3.70;;;3.08;;
67556;SDS011;54387;53.526;49.300;2023-07-30T05:47:38;4.03;;;2.95;;
67556;SDS011;54387;53.526;49.300;2023-07-30T05:50:04;3.67;;;2.80;;
67556;SDS011;54387;53.526;49.300;2023-07-30T05:52:32;4.40;;;3.15;;
67556;SDS011;54387;53.526;49.300;2023-07-30T05:54:59;4.85;;;3.10;;
67556;SDS011;54387;53.526;49.300;2023-07-30T05:57:25;3.92;;;2.80;;
67556;SDS011;54387;53.526;49.300;2023-07-30T05:59:52;4.13;;;3.13;;
67556;SDS011;54387;53.526;49.300;2023-07-30T06:02:18;4.47;;;3.13;;
67556;SDS011;54387;53.526;49.300;2023-07-30T06:04:45;3.30;;;2.63;;
67556;SDS011;54387;53.526;49.300;2023-07-30T06:07:11;3.88;;;3.17;;
67556;SDS011;54387;53.526;49.300;2023-07-30T06:09:38;4.10;;;3.30;;
67556;SDS011;54387;53.526;49.300;2023-07-30T06:12:05;4.72;;;3.10;;
67556;SDS011;54387;53.526;49.300;2023-07-30T06:14:31;3.92;;;3.40;;
67556;SDS011;54387;53.526;49.300;2023-07-30T06:16:58;3.65;;;2.70;;
67556;SDS011;54387;53.526;49.300;2023-07-30T06:19:24;7.47;;;3.13;;
67556;SDS011;54387;53.526;49.300;2023-07-30T06:21:52;6.00;;;3.30;;
67556;SDS011;54387;53.526;49.300;2023-07-30T06:24:18;4.50;;;3.00;;
67556;SDS011;54387;53.526;49.300;2023-07-30T06:26:45;4.75;;;3.22;;
67556;SDS011;54387;53.526;49.300;2023-07-30T06:29:11;5.53;;;3.40;;
67556;SDS011;54387;53.526;49.300;2023-07-30T06:31:38;5.30;;;2.90;;
67556;SDS011;54387;53.526;49.300;2023-07-30T06:34:04;5.90;;;3.35;;
67556;SDS011;54387;53.526;49.300;2023-07-30T06:36:31;3.30;;;2.90;;
67556;SDS011;54387;53.526;49.300;2023-07-30T06:38:58;4.80;;;3.22;;
67556;SDS011;54387;53.526;49.300;2023-07-30T06:41:24;7.40;;;3.33;;
67556;SDS011;54387;53.526;49.300;2023-07-30T06:43:51;4.18;;;3.08;;
67556;SDS011;54387;53.526;49.300;2023-07-30T06:46:17;3.50;;;3.17;;
67556;SDS011;54387;53.526;49.300;2023-07-30T06:48:44;5.68;;;3.45;;
67556;SDS011;54387;53.526;49.300;2023-07-30T06:51:10;3.67;;;2.90;;
67556;SDS011;54387;53.526;49.300;2023-07-30T06:53:38;4.75;;;3.70;;
67556;SDS011;54387;53.526;49.300;2023-07-30T06:56:05;3.85;;;3.20;;
67556;SDS011;54387;53.526;49.300;2023-07-30T06:58:31;4.57;;;3.72;;
67556;SDS011;54387;53.526;49.300;2023-07-30T07:00:57;5.13;;;3.58;;
67556;SDS011;54387;53.526;49.300;2023-07-30T07:03:24;5.93;;;3.83;;
67556;SDS011;54387;53.526;49.300;2023-07-30T07:05:54;5.30;;;3.20;;
67556;SDS011;54387;53.526;49.300;2023-07-30T07:08:21;4.07;;;3.67;;
67556;SDS011;54387;53.526;49.300;2023-07-30T07:10:48;4.30;;;3.13;;
67556;SDS011;54387;53.526;49.300;2023-07-30T07:13:15;4.35;;;3.38;;
67556;SDS011;54387;53.526;49.300;2023-07-30T07:15:42;3.60;;;2.90;;
67556;SDS011;54387;53.526;49.300;2023-07-30T07:18:09;6.68;;;3.70;;
67556;SDS011;54387;53.526;49.300;2023-07-30T07:20:36;4.60;;;3.38;;
67556;SDS011;54387;53.526;49.300;2023-07-30T07:23:03;4.45;;;2.88;;
67556;SDS011;54387;53.526;49.300;2023-07-30T07:25:29;6.43;;;3.25;;
67556;SDS011;54387;53.526;49.300;2023-07-30T07:27:56;6.38;;;3.38;;
67556;SDS011;54387;53.526;49.300;2023-07-30T07:30:22;3.50;;;3.20;;
67556;SDS011;54387;53.526;49.300;2023-07-30T07:32:49;3.35;;;3.05;;
67556;SDS011;54387;53.526;49.300;2023-07-30T07:35:21;5.93;;;3.10;;
67556;SDS011;54387;53.526;49.300;2023-07-30T07:37:47;4.05;;;2.88;;
67556;SDS011;54387;53.526;49.300;2023-07-30T07:40:14;2.83;;;2.42;;
67556;SDS011;54387;53.526;49.300;2023-07-30T07:42:41;5.35;;;2.90;;
67556;SDS011;54387;53.526;49.300;2023-07-30T07:45:07;3.35;;;3.05;;
67556;SDS011;54387;53.526;49.300;2023-07-30T07:47:34;5.47;;;2.90;;
67556;SDS011;54387;53.526;49.300;2023-07-30T07:50:01;4.03;;;2.80;;
67556;SDS011;54387;53.526;49.300;2023-07-30T07:52:27;5.75;;;2.80;;
67556;SDS011;54387;53.526;49.300;2023-07-30T07:54:53;4.18;;;3.15;;
67556;SDS011;54387;53.526;49.300;2023-07-30T07:57:20;5.90;;;3.00;;
67556;SDS011;54387;53.526;49.300;2023-07-30T07:59:46;5.93;;;3.15;;
67556;SDS011;54387;53.526;49.300;2023-07-30T08:02:13;6.32;;;3.08;;
67556;SDS011;54387;53.526;49.300;2023-07-30T08:04:40;4.43;;;3.28;;
67556;SDS011;54387;53.526;49.300;2023-07-30T08:07:06;3.97;;;3.08;;
67556;SDS011;54387;53.526;49.300;2023-07-30T08:09:32;4.20;;;3.05;;
67556;SDS011;54387;53.526;49.300;2023-07-30T08:11:59;3.67;;;2.78;;
67556;SDS011;54387;53.526;49.300;2023-07-30T08:14:26;5.03;;;3.33;;
67556;SDS011;54387;53.526;49.300;2023-07-30T08:16:53;5.13;;;3.00;;
67556;SDS011;54387;53.526;49.300;2023-07-30T08:19:19;3.60;;;2.95;;
67556;SDS011;54387;53.526;49.300;2023-07-30T08:21:46;4.10;;;3.05;;
67556;SDS011;54387;53.526;49.300;2023-07-30T08:24:12;5.00;;;3.03;;
67556;SDS011;54387;53.526;49.300;2023-07-30T08:26:38;4.35;;;3.10;;
67556;SDS011;54387;53.526;49.300;2023-07-30T08:29:05;3.15;;;2.53;;
67556;SDS011;54387;53.526;49.300;2023-07-30T08:31:31;3.40;;;2.78;;
67556;SDS011;54387;53.526;49.300;2023-07-30T08:33:58;5.05;;;3.05;;
67556;SDS011;54387;53.526;49.300;2023-07-30T08:36:24;5.30;;;2.80;;
67556;SDS011;54387;53.526;49.300;2023-07-30T08:38:51;3.75;;;2.47;;
67556;SDS011;54387;53.526;49.300;2023-07-30T08:41:17;2.95;;;2.47;;
67556;SDS011;54387;53.526;49.300;2023-07-30T08:43:44;4.97;;;2.75;;
67556;SDS011;54387;53.526;49.300;2023-07-30T08:46:17;3.58;;;2.50;;
67556;SDS011;54387;53.526;49.300;2023-07-30T08:48:44;2.95;;;2.65;;
67556;SDS011;54387;53.526;49.300;2023-07-30T08:51:11;3.65;;;2.80;;
67556;SDS011;54387;53.526;49.300;2023-07-30T08:53:38;3.85;;;2.47;;
67556;SDS011;54387;53.526;49.300;2023-07-30T08:56:06;3.97;;;2.78;;
67556;SDS011;54387;53.526;49.300;2023-07-30T08:58:34;3.97;;;2.65;;
67556;SDS011;54387;53.526;49.300;2023-07-30T09:01:01;3.33;;;2.75;;
67556;SDS011;54387;53.526;49.300;2023-07-30T09:03:29;3.53;;;2.40;;
67556;SDS011;54387;53.526;49.300;2023-07-30T09:05:57;2.58;;;2.22;;
67556;SDS011;54387;53.526;49.300;2023-07-30T09:08:23;3.92;;;2.30;;
67556;SDS011;54387;53.526;49.300;2023-07-30T09:10:50;3.72;;;2.40;;
67556;SDS011;54387;53.526;49.300;2023-07-30T09:13:23;2.47;;;2.15;;
67556;SDS011;54387;53.526;49.300;2023-07-30T09:15:49;5.28;;;2.58;;
67556;SDS011;54387;53.526;49.300;2023-07-30T09:18:16;3.22;;;2.40;;
67556;SDS011;54387;53.526;49.300;2023-07-30T09:20:45;3.00;;;2.45;;
67556;SDS011;54387;53.526;49.300;2023-07-30T09:23:12;5.60;;;2.90;;
67556;SDS011;54387;53.526;49.300;2023-07-30T09:25:38;3.70;;;2.70;;
67556;SDS011;54387;53.526;49.300;2023-07-30T09:28:05;3.28;;;2.97;;
67556;SDS011;54387;53.526;49.300;2023-07-30T09:30:32;4.22;;;3.00;;
67556;SDS011;54387;53.526;49.300;2023-07-30T09:32:59;5.43;;;2.88;;
67556;SDS011;54387;53.526;49.300;2023-07-30T09:35:29;4.90;;;3.47;;
67556;SDS011;54387;53.526;49.300;2023-07-30T09:37:59;4.50;;;3.40;;
67556;SDS011;54387;53.526;49.300;2023-07-30T09:40:33;4.97;;;3.75;;
67556;SDS011;54387;53.526;49.300;2023-07-30T09:43:04;5.07;;;3.83;;
67556;SDS011;54387;53.526;49.300;2023-07-30T09:45:35;4.75;;;4.03;;
67556;SDS011;54387;53.526;49.300;2023-07-30T09:48:04;4.10;;;3.70;;
67556;SDS011;54387;53.526;49.300;2023-07-30T09:50:32;3.97;;;3.38;;
67556;SDS011;54387;53.526;49.300;2023-07-30T09:53:00;3.92;;;3.55;;
67556;SDS011;54387;53.526;49.300;2023-07-30T09:55:27;4.10;;;3.20;;
67556;SDS011;54387;53.526;49.300;2023-07-30T09:57:54;3.72;;;3.10;;
67556;SDS011;54387;53.526;49.300;2023-07-30T10:00:20;4.10;;;3.33;;
67556;SDS011;54387;53.526;49.300;2023-07-30T10:02:47;4.22;;;3.20;;
67556;SDS011;54387;53.526;49.300;2023-07-30T10:05:16;3.30;;;3.00;;
67556;SDS011;54387;53.526;49.300;2023-07-30T10:07:58;3.28;;;2.97;;
67556;SDS011;54387;53.526;49.300;2023-07-30T10:10:28;3.53;;;2.97;;
67556;SDS011;54387;53.526;49.300;2023-07-30T10:12:56;3.78;;;3.10;;
67556;SDS011;54387;53.526;49.300;2023-07-30T10:15:26;5.13;;;3.10;;
67556;SDS011;54387;53.526;49.300;2023-07-30T10:17:52;3.33;;;2.70;;
67556;SDS011;54387;53.526;49.300;2023-07-30T10:20:25;5.72;;;3.10;;
67556;SDS011;54387;53.526;49.300;2023-07-30T10:22:54;3.13;;;2.83;;
67556;SDS011;54387;53.526;49.300;2023-07-30T10:25:22;3.22;;;2.92;;
67556;SDS011;54387;53.526;49.300;2023-07-30T10:27:56;2.75;;;2.50;;
67556;SDS011;54387;53.526;49.300;2023-07-30T10:30:29;2.97;;;2.55;;
67556;SDS011;54387;53.526;49.300;2023-07-30T10:32:59;4.10;;;2.90;;
67556;SDS011;54387;53.526;49.300;2023-07-30T10:38:14;16.95;;;3.65;;
67556;SDS011;54387;53.526;49.300;2023-07-30T10:43:39;6.63;;;3.20;;
67556;SDS011;54387;53.526;49.300;2023-07-30T10:46:09;5.03;;;2.95;;
67556;SDS011;54387;53.526;49.300;2023-07-30T10:48:37;4.45;;;2.97;;
67556;SDS011;54387;53.526;49.300;2023-07-30T10:51:09;4.43;;;3.47;;
67556;SDS011;54387;53.526;49.300;2023-07-30T10:53:36;5.95;;;3.05;;
67556;SDS011;54387;53.526;49.300;2023-07-30T10:56:03;4.53;;;3.60;;
67556;SDS011;54387;53.526;49.300;2023-07-30T10:58:31;4.25;;;3.70;;
67556;SDS011;54387;53.526;49.300;2023-07-30T11:01:00;4.50;;;4.10;;
67556;SDS011;54387;53.526;49.300;2023-07-30T11:03:29;12.65;;;4.20;;
67556;SDS011;54387;53.526;49.300;2023-07-30T11:05:57;5.32;;;4.15;;
67556;SDS011;54387;53.526;49.300;2023-07-30T11:10:59;6.03;;;4.45;;
67556;SDS011;54387;53.526;49.300;2023-07-30T11:13:26;5.68;;;3.80;;
67556;SDS011;54387;53.526;49.300;2023-07-30T11:15:52;6.55;;;4.03;;
67556;SDS011;54387;53.526;49.300;2023-07-30T11:18:19;3.75;;;3.35;;
67556;SDS011;54387;53.526;49.300;2023-07-30T11:20:45;4.45;;;3.63;;
67556;SDS011;54387;53.526;49.300;2023-07-30T11:23:22;4.18;;;3.25;;
67556;SDS011;54387;53.526;49.300;2023-07-30T11:25:49;6.43;;;4.00;;
67556;SDS011;54387;53.526;49.300;2023-07-30T11:28:28;3.65;;;3.20;;
67556;SDS011;54387;53.526;49.300;2023-07-30T11:31:15;5.30;;;3.42;;
67556;SDS011;54387;53.526;49.300;2023-07-30T11:33:46;3.15;;;2.85;;
67556;SDS011;54387;53.526;49.300;2023-07-30T11:36:21;5.47;;;3.25;;
67556;SDS011;54387;53.526;49.300;2023-07-30T11:38:49;3.50;;;3.20;;
67556;SDS011;54387;53.526;49.300;2023-07-30T11:41:18;4.35;;;3.30;;
67556;SDS011;54387;53.526;49.300;2023-07-30T11:43:47;5.05;;;2.75;;
67556;SDS011;54387;53.526;49.300;2023-07-30T11:46:17;4.18;;;2.63;;
67556;SDS011;54387;53.526;49.300;2023-07-30T11:48:46;4.18;;;2.67;;
67556;SDS011;54387;53.526;49.300;2023-07-30T11:54:02;3.70;;;2.70;;
67556;SDS011;54387;53.526;49.300;2023-07-30T11:56:30;3.20;;;2.55;;
67556;SDS011;54387;53.526;49.300;2023-07-30T11:58:59;2.92;;;2.40;;
67556;SDS011;54387;53.526;49.300;2023-07-30T12:01:33;3.90;;;2.47;;
67556;SDS011;54387;53.526;49.300;2023-07-30T12:04:05;4.60;;;2.63;;
67556;SDS011;54387;53.526;49.300;2023-07-30T12:06:43;3.25;;;2.30;;
67556;SDS011;54387;53.526;49.300;2023-07-30T12:09:18;4.13;;;2.15;;
67556;SDS011;54387;53.526;49.300;2023-07-30T12:14:27;4.55;;;2.42;;
67556;SDS011;54387;53.526;49.300;2023-07-30T12:17:01;2.75;;;1.80;;
67556;SDS011;54387;53.526;49.300;2023-07-30T12:19:29;4.15;;;2.20;;
67556;SDS011;54387;53.526;49.300;2023-07-30T12:21:55;4.32;;;2.17;;
67556;SDS011;54387;53.526;49.300;2023-07-30T12:24:22;2.28;;;1.90;;
67556;SDS011;54387;53.526;49.300;2023-07-30T12:26:48;2.95;;;2.00;;
67556;SDS011;54387;53.526;49.300;2023-07-30T12:29:15;2.88;;;2.15;;
67556;SDS011;54387;53.526;49.300;2023-07-30T12:31:41;2.00;;;1.80;;
67556;SDS011;54387;53.526;49.300;2023-07-30T12:34:07;3.75;;;1.80;;
67556;SDS011;54387;53.526;49.300;2023-07-30T12:36:34;3.42;;;2.22;;
67556;SDS011;54387;53.526;49.300;2023-07-30T12:39:00;4.85;;;2.40;;
67556;SDS011;54387;53.526;49.300;2023-07-30T12:41:27;2.95;;;2.67;;
67556;SDS011;54387;53.526;49.300;2023-07-30T12:43:54;2.88;;;2.33;;
67556;SDS011;54387;53.526;49.300;2023-07-30T12:46:24;4.85;;;2.42;;
67556;SDS011;54387;53.526;49.300;2023-07-30T12:48:56;5.80;;;2.33;;
67556;SDS011;54387;53.526;49.300;2023-07-30T12:51:22;4.32;;;2.15;;
67556;SDS011;54387;53.526;49.300;2023-07-30T12:53:48;2.47;;;2.28;;
67556;SDS011;54387;53.526;49.300;2023-07-30T12:56:15;3.10;;;1.52;;
67556;SDS011;54387;53.526;49.300;2023-07-30T12:58:41;2.10;;;1.30;;
67556;SDS011;54387;53.526;49.300;2023-07-30T13:01:08;4.25;;;1.60;;
67556;SDS011;54387;53.526;49.300;2023-07-30T13:03:34;2.80;;;1.80;;
67556;SDS011;54387;53.526;49.300;2023-07-30T13:06:02;2.10;;;1.90;;
67556;SDS011;54387;53.526;49.300;2023-07-30T13:08:28;3.13;;;1.90;;
67556;SDS011;54387;53.526;49.300;2023-07-30T13:10:55;4.30;;;1.70;;
67556;SDS011;54387;53.526;49.300;2023-07-30T13:13:21;3.65;;;2.33;;
67556;SDS011;54387;53.526;49.300;2023-07-30T13:15:49;2.83;;;2.40;;
67556;SDS011;54387;53.526;49.300;2023-07-30T13:18:16;2.67;;;1.90;;
67556;SDS011;54387;53.526;49.300;2023-07-30T13:20:42;3.58;;;2.10;;
67556;SDS011;54387;53.526;49.300;2023-07-30T13:23:09;2.40;;;2.20;;
67556;SDS011;54387;53.526;49.300;2023-07-30T13:25:37;3.45;;;2.03;;
67556;SDS011;54387;53.526;49.300;2023-07-30T13:28:04;2.72;;;2.22;;
67556;SDS011;54387;53.526;49.300;2023-07-30T13:30:31;3.17;;;1.45;;
67556;SDS011;54387;53.526;49.300;2023-07-30T13:32:57;2.72;;;1.90;;
67556;SDS011;54387;53.526;49.300;2023-07-30T13:35:24;2.47;;;1.58;;
67556;SDS011;54387;53.526;49.300;2023-07-30T13:37:50;2.83;;;1.73;;
67556;SDS011;54387;53.526;49.300;2023-07-30T13:40:16;1.80;;;1.35;;
67556;SDS011;54387;53.526;49.300;2023-07-30T13:42:43;1.48;;;1.38;;
67556;SDS011;54387;53.526;49.300;2023-07-30T13:45:09;2.60;;;1.50;;
67556;SDS011;54387;53.526;49.300;2023-07-30T13:47:36;2.25;;;1.35;;
67556;SDS011;54387;53.526;49.300;2023-07-30T13:50:02;4.35;;;1.50;;
67556;SDS011;54387;53.526;49.300;2023-07-30T13:52:29;5.68;;;1.33;;
67556;SDS011;54387;53.526;49.300;2023-07-30T13:54:55;1.50;;;1.10;;
67556;SDS011;54387;53.526;49.300;2023-07-30T13:57:22;2.45;;;1.20;;
67556;SDS011;54387;53.526;49.300;2023-07-30T13:59:52;1.83;;;1.33;;
67556;SDS011;54387;53.526;49.300;2023-07-30T14:02:18;4.05;;;1.38;;
67556;SDS011;54387;53.526;49.300;2023-07-30T14:04:45;1.20;;;1.10;;
67556;SDS011;54387;53.526;49.300;2023-07-30T14:07:11;1.33;;;1.23;;
67556;SDS011;54387;53.526;49.300;2023-07-30T14:09:38;1.42;;;1.00;;
67556;SDS011;54387;53.526;49.300;2023-07-30T14:12:05;1.63;;;1.10;;
67556;SDS011;54387;53.526;49.300;2023-07-30T14:14:31;2.80;;;1.80;;
67556;SDS011;54387;53.526;49.300;2023-07-30T14:16:58;2.03;;;1.38;;
67556;SDS011;54387;53.526;49.300;2023-07-30T14:19:24;1.25;;;0.93;;
67556;SDS011;54387;53.526;49.300;2023-07-30T14:21:51;3.00;;;1.33;;
67556;SDS011;54387;53.526;49.300;2023-07-30T14:24:17;1.90;;;1.48;;
67556;SDS011;54387;53.526;49.300;2023-07-30T14:26:44;1.90;;;1.38;;
67556;SDS011;54387;53.526;49.300;2023-07-30T14:29:10;3.45;;;1.42;;
67556;SDS011;54387;53.526;49.300;2023-07-30T14:31:37;2.28;;;1.55;;
67556;SDS011;54387;53.526;49.300;2023-07-30T14:34:03;2.13;;;1.40;;
67556;SDS011;54387;53.526;49.300;2023-07-30T14:36:29;1.85;;;1.23;;
67556;SDS011;54387;53.526;49.300;2023-07-30T14:38:56;5.80;;;1.60;;
67556;SDS011;54387;53.526;49.300;2023-07-30T14:41:23;3.08;;;1.33;;
67556;SDS011;54387;53.526;49.300;2023-07-30T14:43:50;2.15;;;1.65;;
67556;SDS011;54387;53.526;49.300;2023-07-30T14:46:16;2.72;;;1.73;;